Terminal Aerodrome Forecast
Issued by NWS Glasgow, MT

Home | Current Version | Previous Version | Text Only | Print | Product List | Glossary On
Versions: 1 2 3 4 5 6 7 8 9 10 11 12 13 14 15 16 17 18 19 20
000
FTUS45 KGGW 011700
TAFGGW
TAF
KGGW 011728Z 0118/0218 28018G27KT P6SM BKN022 BKN110
     FM020000 30010KT P6SM SCT080
     FM020300 VRB05KT P6SM SCT090
     FM021100 30015KT P6SM -SHRA OVC040=

USA.gov is the U.S. government's official web portal to all federal, state and local government web resources and services.